Corning, California
Current Conditions -  °F | °C
As of 11:54 PM on Tuesday 25 Nov 2014 (Local Time) from KRBL Reporting Station
Clear Clear  
Wind Chill: 40°   Ceiling: Unl
Heat Index: 43°   Visibility: 10mi
Dew Point: 39°   Wind: 5mph
Humidity: 86%   Direction: 330°NNW
Pressure: 30.37"   Gusts: NA
Location:  39.93°N, 122.17°W
Report Text: KRBL 260754Z AUTO 33004KT 10SM CLR 06/04 A3037 RMK AO2 SLP284 T00610039 401890033
Loading
Personal Weather Stations






























Interactive Weather Map New forecast layout! Learn more

10-Day Weather Forecast

Advertisements
Track Severe Weather on mobile